KDNL/DNL METAR and TAF weather

Enter ICAO airport designator
Station Type Date Time Source
KDNL METAR 2018/01/17 05:53 UTC NOAA

KDNL 170553Z AUTO 00000KT 10SM OVC060 09/01 A3028 RMK AO2 SLP253 T00890006 10111 20089 56011


Station Type Date Time Source
KDNL Decoded METAR 2018/01/17 05:53 UTC NOAA

AUGUSTA DANIEL FIELD, GA, United States (KDNL) 33-28N 82-02W 130M
Jan 17, 2018 - 12:53 AM EST / 2018.01.17 0553 UTC
Wind: Calm:0
Visibility: 10 mile(s):0
Sky conditions: overcast
Temperature: 48.0 F (8.9 C)
Dew Point: 33.1 F (0.6 C)
Relative Humidity: 55%
Pressure (altimeter): 30.28 in. Hg (1025 hPa)
Pressure tendency: 0.03 inches (1.1 hPa) lower than three hours ago
ob: KDNL 170553Z AUTO 00000KT 10SM OVC060 09/01 A3028 RMK AO2 SLP253 T00890006 10111 20089 56011
cycle: 6

Station Type Date Time Source
KDNL TAF 2018/01/17 06:33 UTC NOAA

TAF KDNL 170531Z 1706/1806 VRB03KT P6SM OVC050
FM170900 VRB04KT P6SM VCSH OVC035
FM171300 31008KT 5SM -RASN OVC020
TEMPO 1716/1719 2SM -RASN OVC012
FM180000 31010KT P6SM SCT035


Example: see airport list